Seattle, Washington
Traffic Map
Current Weather Conditions
Seattle, Washington
Clear
Clear
64°
Feels Like: 64°
Wind Chill: 64° Ceiling: Unl
Heat Index: 64° Visibility: 10mi
Dew Point: 52° Wind: 0mph
Humidity: 65% Direction: ° ()
Pressure: 30.19in Gusts: 0mph
Raw Report DataKBFI 240653Z 00000KT 10SM CLR 18/11 A3019 RMK AO2 SLP223 T01780111
Traffic Incident Summary
Active as of:
Severity:
Category:
InformationThere was an issue retrieving the traffic information for this location. Please try a different location or try again shortly.
Advertisements
Track Severe Weather on mobile